Time;durP1;ratioP1;P1;durP2;ratioP2;P2;SDS_P1;SDS_P2;PMS_P1;PMS_P2;Temp;Humidity;BMP_temperature;BMP_pressure;BME280_temperature;BME280_humidity;BME280_pressure;Samples;Min_cycle;Max_cycle;Signal;HPM_P1;HPM_P2
2023/01/27 00:01:48;;;;;;;32.27;23.93;;;;;;;;;;4405787;32;416618;-84
2023/01/27 00:04:15;;;;;;;39.67;25.67;;;;;;;;;;4419935;32;318250;-83
2023/01/27 00:06:41;;;;;;;43.50;26.53;;;;;;;;;;4409806;32;318657;-83
2023/01/27 00:09:08;;;;;;;37.73;24.47;;;;;;;;;;4418784;32;317515;-83
2023/01/27 00:14:19;;;;;;;45.17;28.40;;;;;;;;;;4418277;32;334597;-83
2023/01/27 00:16:47;;;;;;;45.80;27.23;;;;;;;;;;4407055;32;414217;-83
2023/01/27 00:19:18;;;;;;;48.33;28.53;;;;;;;;;;4419830;32;318268;-83
2023/01/27 00:24:38;;;;;;;47.90;29.83;;;;;;;;;;4383002;32;318511;-84
2023/01/27 00:27:07;;;;;;;52.90;29.43;;;;;;;;;;4418733;32;318526;-83
2023/01/27 00:29:34;;;;;;;50.67;31.73;;;;;;;;;;4408667;32;318360;-83
2023/01/27 00:34:48;;;;;;;38.43;24.47;;;;;;;;;;4406142;32;389037;-83
2023/01/27 00:37:15;;;;;;;34.73;24.30;;;;;;;;;;4418244;32;322275;-83
2023/01/27 00:39:42;;;;;;;41.90;25.70;;;;;;;;;;4401901;32;318614;-83
2023/01/27 00:42:09;;;;;;;40.00;26.13;;;;;;;;;;4418228;32;317591;-83
2023/01/27 00:44:36;;;;;;;38.13;26.00;;;;;;;;;;4408364;32;318010;-83
2023/01/27 00:47:04;;;;;;;40.37;26.77;;;;;;;;;;4419063;32;318423;-83
2023/01/27 00:49:31;;;;;;;37.43;25.40;;;;;;;;;;4408035;32;318628;-83
2023/01/27 00:51:57;;;;;;;48.60;33.63;;;;;;;;;;4419499;32;318358;-83
2023/01/27 00:54:24;;;;;;;49.30;38.07;;;;;;;;;;4408329;32;318342;-83
2023/01/27 00:56:51;;;;;;;48.00;32.70;;;;;;;;;;4418042;32;318292;-83
2023/01/27 00:59:18;;;;;;;51.33;33.17;;;;;;;;;;4419462;32;318372;-83
2023/01/27 01:01:45;;;;;;;38.63;27.33;;;;;;;;;;4408506;32;336233;-83
2023/01/27 01:04:13;;;;;;;37.30;24.90;;;;;;;;;;4418974;32;317787;-83
2023/01/27 01:06:40;;;;;;;41.33;27.03;;;;;;;;;;4409256;32;318442;-83
2023/01/27 01:09:06;;;;;;;37.33;24.93;;;;;;;;;;4418983;32;318267;-83
2023/01/27 01:11:33;;;;;;;36.40;25.13;;;;;;;;;;4407650;32;318785;-83
2023/01/27 01:14:00;;;;;;;41.77;25.50;;;;;;;;;;4417930;32;351656;-83
2023/01/27 01:16:27;;;;;;;40.43;27.10;;;;;;;;;;4408645;32;318303;-83
2023/01/27 01:18:54;;;;;;;42.33;27.17;;;;;;;;;;4418775;32;317925;-82
2023/01/27 01:21:22;;;;;;;53.90;32.53;;;;;;;;;;4408989;32;318323;-86
2023/01/27 01:23:49;;;;;;;43.10;30.63;;;;;;;;;;4418686;32;318622;-83
2023/01/27 01:26:16;;;;;;;43.03;26.67;;;;;;;;;;4418637;32;317514;-83
2023/01/27 01:28:44;;;;;;;35.37;25.70;;;;;;;;;;4407871;32;318296;-83
2023/01/27 01:31:13;;;;;;;34.87;23.33;;;;;;;;;;4417336;32;317539;-83
2023/01/27 01:33:39;;;;;;;31.43;23.80;;;;;;;;;;4407549;32;318381;-83
2023/01/27 01:36:08;;;;;;;38.80;25.77;;;;;;;;;;4417138;32;318316;-83
2023/01/27 01:38:36;;;;;;;37.20;23.33;;;;;;;;;;4408794;32;317886;-83
2023/01/27 01:41:04;;;;;;;30.40;22.30;;;;;;;;;;4417167;32;318399;-83
2023/01/27 01:43:31;;;;;;;33.23;22.63;;;;;;;;;;4407080;32;326754;-83
2023/01/27 01:45:58;;;;;;;30.73;20.23;;;;;;;;;;4418220;32;318398;-83
2023/01/27 01:48:35;;;;;;;31.13;22.13;;;;;;;;;;4407284;32;318550;-83
2023/01/27 01:51:09;;;;;;;33.70;23.40;;;;;;;;;;4416882;32;318415;-83
2023/01/27 01:53:43;;;;;;;42.83;27.60;;;;;;;;;;4407813;32;337230;-83
2023/01/27 01:56:14;;;;;;;42.90;27.57;;;;;;;;;;4418137;32;318258;-83
2023/01/27 01:58:42;;;;;;;37.20;26.27;;;;;;;;;;4407806;32;318410;-83
2023/01/27 02:01:09;;;;;;;39.70;26.03;;;;;;;;;;4416535;32;318330;-83
2023/01/27 02:03:41;;;;;;;40.30;25.73;;;;;;;;;;4406974;32;318338;-83
2023/01/27 02:06:10;;;;;;;40.80;26.73;;;;;;;;;;4418125;32;318261;-83
2023/01/27 02:08:40;;;;;;;36.67;25.40;;;;;;;;;;4407721;32;318703;-83
2023/01/27 02:11:07;;;;;;;36.20;25.30;;;;;;;;;;4417857;32;317607;-83
2023/01/27 02:13:34;;;;;;;35.30;24.37;;;;;;;;;;4406924;32;318349;-83
2023/01/27 02:16:01;;;;;;;37.93;23.80;;;;;;;;;;4417836;32;318544;-83
2023/01/27 02:18:28;;;;;;;30.30;21.93;;;;;;;;;;4406717;32;318391;-83
2023/01/27 02:20:58;;;;;;;39.20;23.90;;;;;;;;;;4416862;32;318357;-83
2023/01/27 02:23:37;;;;;;;30.67;21.97;;;;;;;;;;4407752;32;317443;-83
2023/01/27 02:26:09;;;;;;;32.57;22.93;;;;;;;;;;4418096;32;318553;-83
2023/01/27 02:28:36;;;;;;;28.70;19.13;;;;;;;;;;4408233;32;318733;-83
2023/01/27 02:31:03;;;;;;;32.23;21.83;;;;;;;;;;4417742;32;318434;-84
2023/01/27 02:33:30;;;;;;;33.43;20.40;;;;;;;;;;4407898;32;318516;-83
2023/01/27 02:36:02;;;;;;;32.60;21.20;;;;;;;;;;4417529;32;318452;-83
2023/01/27 02:38:38;;;;;;;30.13;20.30;;;;;;;;;;4407080;32;317656;-84
2023/01/27 02:41:14;;;;;;;29.27;21.20;;;;;;;;;;4417667;32;317776;-83
2023/01/27 02:43:41;;;;;;;29.27;19.40;;;;;;;;;;4408098;32;318809;-83
2023/01/27 02:46:08;;;;;;;34.37;22.13;;;;;;;;;;4417407;32;318399;-83
2023/01/27 02:48:34;;;;;;;30.53;22.63;;;;;;;;;;4408189;32;318846;-83
2023/01/27 02:51:01;;;;;;;31.40;20.37;;;;;;;;;;4416366;32;318765;-83
2023/01/27 02:53:28;;;;;;;28.87;20.17;;;;;;;;;;4406577;32;317542;-83
2023/01/27 02:55:55;;;;;;;29.43;20.20;;;;;;;;;;4417554;32;318448;-83
2023/01/27 02:58:23;;;;;;;30.87;20.20;;;;;;;;;;4409085;32;318670;-84
2023/01/27 03:00:50;;;;;;;28.80;20.73;;;;;;;;;;4417011;32;318543;-83
2023/01/27 03:03:17;;;;;;;28.13;19.37;;;;;;;;;;4417658;32;318674;-83
2023/01/27 03:05:44;;;;;;;27.57;20.00;;;;;;;;;;4406516;32;318368;-83
2023/01/27 03:08:11;;;;;;;27.43;18.77;;;;;;;;;;4416386;32;325396;-83
2023/01/27 03:10:38;;;;;;;26.67;19.00;;;;;;;;;;4408029;32;349608;-83
2023/01/27 03:13:05;;;;;;;25.00;17.40;;;;;;;;;;4420776;32;318001;-83
2023/01/27 03:18:17;;;;;;;23.63;16.87;;;;;;;;;;4419465;32;318595;-84
2023/01/27 03:20:46;;;;;;;26.17;18.47;;;;;;;;;;4409472;32;317989;-84
2023/01/27 03:23:14;;;;;;;28.27;19.00;;;;;;;;;;4420694;32;318370;-83
2023/01/27 03:25:42;;;;;;;27.87;19.27;;;;;;;;;;4409918;32;318445;-84
2023/01/27 03:28:12;;;;;;;32.13;20.23;;;;;;;;;;4420605;32;318407;-83
2023/01/27 03:30:41;;;;;;;31.57;20.43;;;;;;;;;;4409098;32;318550;-83
2023/01/27 03:33:11;;;;;;;32.80;22.57;;;;;;;;;;4419828;32;339394;-84
2023/01/27 03:35:45;;;;;;;29.30;20.27;;;;;;;;;;4410146;32;318351;-84
2023/01/27 03:46:27;;;;;;;28.17;19.63;;;;;;;;;;4409661;32;317537;-83
2023/01/27 03:48:55;;;;;;;28.63;19.87;;;;;;;;;;4420165;32;317597;-84
2023/01/27 03:51:24;;;;;;;26.80;18.37;;;;;;;;;;4408666;32;317791;-84
2023/01/27 03:53:51;;;;;;;25.30;18.80;;;;;;;;;;4420294;32;318458;-84
2023/01/27 03:56:20;;;;;;;24.63;16.37;;;;;;;;;;4418646;32;318304;-84
2023/01/27 03:58:48;;;;;;;22.07;16.00;;;;;;;;;;4407288;32;417455;-84
2023/01/27 04:01:16;;;;;;;32.37;21.13;;;;;;;;;;4419685;32;318385;-84
2023/01/27 04:09:19;;;;;;;37.37;23.97;;;;;;;;;;4419586;32;317770;-84
2023/01/27 04:11:56;;;;;;;57.70;34.20;;;;;;;;;;4406900;32;416757;-84
2023/01/27 04:14:25;;;;;;;46.97;29.90;;;;;;;;;;4407974;32;323053;-83
2023/01/27 04:16:53;;;;;;;39.73;27.47;;;;;;;;;;4418552;32;318715;-83
2023/01/27 04:19:21;;;;;;;40.67;27.00;;;;;;;;;;4419801;32;318531;-83
2023/01/27 04:21:48;;;;;;;168.53;68.77;;;;;;;;;;4407087;32;417314;-84
2023/01/27 04:24:21;;;;;;;175.93;73.13;;;;;;;;;;4419662;32;318538;-83
2023/01/27 04:26:49;;;;;;;143.07;60.60;;;;;;;;;;4405469;32;418263;-84
2023/01/27 04:29:16;;;;;;;86.60;43.97;;;;;;;;;;4418464;32;319563;-83
2023/01/27 04:31:43;;;;;;;92.17;47.23;;;;;;;;;;4408475;32;318696;-83
2023/01/27 04:34:11;;;;;;;88.43;45.70;;;;;;;;;;4419636;32;318322;-84
2023/01/27 04:36:39;;;;;;;62.87;38.53;;;;;;;;;;4408683;32;318683;-83
2023/01/27 04:39:06;;;;;;;57.60;34.47;;;;;;;;;;4418211;32;318430;-84
2023/01/27 04:41:33;;;;;;;57.63;32.77;;;;;;;;;;4407615;32;339737;-84
2023/01/27 04:44:00;;;;;;;51.90;28.50;;;;;;;;;;4419400;32;318375;-84
2023/01/27 04:46:27;;;;;;;55.03;32.60;;;;;;;;;;4409045;32;318305;-83
2023/01/27 04:48:54;;;;;;;78.27;39.97;;;;;;;;;;4419455;32;318196;-83
2023/01/27 04:51:23;;;;;;;66.07;32.03;;;;;;;;;;4409695;32;318841;-83
2023/01/27 04:53:51;;;;;;;71.40;33.97;;;;;;;;;;4419090;32;318865;-83
2023/01/27 04:56:23;;;;;;;70.63;34.87;;;;;;;;;;4419181;32;318374;-83
2023/01/27 04:58:50;;;;;;;64.57;34.27;;;;;;;;;;4405243;32;417526;-83
2023/01/27 05:01:17;;;;;;;75.80;37.57;;;;;;;;;;4418514;32;317497;-83
2023/01/27 05:03:43;;;;;;;78.57;38.03;;;;;;;;;;4408107;32;318606;-83
2023/01/27 05:06:11;;;;;;;61.73;34.13;;;;;;;;;;4417843;32;318282;-83
2023/01/27 05:08:38;;;;;;;67.13;38.63;;;;;;;;;;4408378;32;337754;-83
2023/01/27 05:11:07;;;;;;;83.17;42.37;;;;;;;;;;4418942;32;318579;-83
2023/01/27 05:13:34;;;;;;;68.57;34.90;;;;;;;;;;4407986;32;318232;-83
2023/01/27 05:16:06;;;;;;;64.87;34.47;;;;;;;;;;4417499;32;317872;-83
2023/01/27 05:18:32;;;;;;;44.33;27.73;;;;;;;;;;4407957;32;318592;-83
2023/01/27 05:21:00;;;;;;;28.57;19.93;;;;;;;;;;4418875;32;317904;-83
2023/01/27 05:23:36;;;;;;;30.87;20.00;;;;;;;;;;4407708;32;318684;-83
2023/01/27 05:26:06;;;;;;;32.33;20.87;;;;;;;;;;4417468;32;318651;-83
2023/01/27 05:28:33;;;;;;;35.00;22.60;;;;;;;;;;4406424;32;351179;-83
2023/01/27 05:31:02;;;;;;;43.23;27.23;;;;;;;;;;4417294;32;317864;-83
2023/01/27 05:33:29;;;;;;;59.63;37.47;;;;;;;;;;4407806;32;318339;-83
2023/01/27 05:35:59;;;;;;;53.30;34.30;;;;;;;;;;4418316;32;318303;-83
2023/01/27 05:38:25;;;;;;;45.90;28.70;;;;;;;;;;4407207;32;317789;-84
2023/01/27 05:40:55;;;;;;;47.07;27.30;;;;;;;;;;4418223;32;318049;-84
2023/01/27 05:43:24;;;;;;;63.73;32.00;;;;;;;;;;4408334;32;317761;-84
2023/01/27 05:45:50;;;;;;;68.40;37.10;;;;;;;;;;4416642;32;317646;-83
2023/01/27 05:48:17;;;;;;;54.50;32.07;;;;;;;;;;4418226;32;318419;-84
2023/01/27 05:50:53;;;;;;;41.73;26.57;;;;;;;;;;4408145;32;318356;-84
2023/01/27 05:53:20;;;;;;;50.40;29.10;;;;;;;;;;4417105;32;318094;-84
2023/01/27 05:55:46;;;;;;;56.33;31.93;;;;;;;;;;4403885;32;417522;-84
2023/01/27 05:58:13;;;;;;;62.93;35.47;;;;;;;;;;4418013;32;318709;-84
2023/01/27 06:00:46;;;;;;;60.73;36.63;;;;;;;;;;4407308;32;318462;-84
2023/01/27 06:03:13;;;;;;;70.47;36.60;;;;;;;;;;4417907;32;318333;-84
2023/01/27 06:05:48;;;;;;;75.00;38.37;;;;;;;;;;4406084;32;317493;-84
2023/01/27 06:08:15;;;;;;;63.20;35.63;;;;;;;;;;4417013;32;317417;-84
2023/01/27 06:10:42;;;;;;;71.07;39.40;;;;;;;;;;4406857;32;317660;-84
2023/01/27 06:13:08;;;;;;;172.23;107.60;;;;;;;;;;4416137;32;318790;-85
2023/01/27 06:15:35;;;;;;;119.03;85.37;;;;;;;;;;4406352;32;340001;-85
2023/01/27 06:18:04;;;;;;;78.40;51.23;;;;;;;;;;4416902;32;319661;-84
2023/01/27 06:20:30;;;;;;;72.93;43.57;;;;;;;;;;4405769;32;317904;-83
2023/01/27 06:22:57;;;;;;;69.20;42.37;;;;;;;;;;4417022;32;318913;-83
2023/01/27 06:25:24;;;;;;;61.70;36.80;;;;;;;;;;4407715;32;318210;-83
2023/01/27 06:27:54;;;;;;;68.70;38.27;;;;;;;;;;4417100;32;317878;-83
2023/01/27 06:30:21;;;;;;;68.23;39.83;;;;;;;;;;4406808;32;318593;-86
2023/01/27 06:32:48;;;;;;;71.03;44.03;;;;;;;;;;4415764;32;317627;-83
2023/01/27 06:35:16;;;;;;;89.13;52.17;;;;;;;;;;4415417;32;318427;-83
2023/01/27 06:37:43;;;;;;;136.93;85.57;;;;;;;;;;4405624;32;318504;-83
2023/01/27 06:40:11;;;;;;;91.53;56.40;;;;;;;;;;4415262;32;318792;-83
2023/01/27 06:42:38;;;;;;;85.10;50.60;;;;;;;;;;4405648;32;318200;-83
2023/01/27 06:45:05;;;;;;;92.03;56.73;;;;;;;;;;4415788;32;342194;-83
2023/01/27 06:47:32;;;;;;;77.23;48.97;;;;;;;;;;4406749;32;318518;-86
2023/01/27 06:49:59;;;;;;;65.13;44.90;;;;;;;;;;4416777;32;318332;-84
2023/01/27 06:52:27;;;;;;;63.63;41.93;;;;;;;;;;4406877;32;317533;-83
2023/01/27 06:54:54;;;;;;;65.97;44.27;;;;;;;;;;4416976;32;318271;-84
2023/01/27 06:57:21;;;;;;;87.30;48.83;;;;;;;;;;4412460;32;318754;-84
2023/01/27 06:59:48;;;;;;;90.60;42.93;;;;;;;;;;4415837;32;318305;-84
2023/01/27 07:02:15;;;;;;;116.17;52.60;;;;;;;;;;4417280;32;318399;-83
2023/01/27 07:04:41;;;;;;;89.47;46.57;;;;;;;;;;4405900;32;318492;-84
2023/01/27 07:07:08;;;;;;;67.00;34.90;;;;;;;;;;4416664;32;318256;-84
2023/01/27 07:09:36;;;;;;;49.90;29.33;;;;;;;;;;4406853;32;318468;-84
2023/01/27 07:12:03;;;;;;;49.27;26.77;;;;;;;;;;4416781;32;317497;-84
2023/01/27 07:14:30;;;;;;;48.93;27.33;;;;;;;;;;4406634;32;318258;-85
2023/01/27 07:16:57;;;;;;;45.93;27.43;;;;;;;;;;4417255;32;318405;-85
2023/01/27 07:19:24;;;;;;;74.93;38.93;;;;;;;;;;4405855;32;317453;-86
2023/01/27 07:21:50;;;;;;;122.37;58.33;;;;;;;;;;4415383;32;328310;-85
2023/01/27 07:24:18;;;;;;;149.27;74.80;;;;;;;;;;4417084;32;318573;-86
2023/01/27 07:26:47;;;;;;;120.50;68.63;;;;;;;;;;4405758;32;336470;-86
2023/01/27 07:29:14;;;;;;;94.83;59.10;;;;;;;;;;4415355;32;319324;-86
2023/01/27 07:31:41;;;;;;;98.07;56.17;;;;;;;;;;4405479;32;317457;-85
2023/01/27 07:34:07;;;;;;;72.50;42.10;;;;;;;;;;4415464;32;317450;-85
2023/01/27 07:36:34;;;;;;;60.40;38.43;;;;;;;;;;4406372;32;318363;-85
2023/01/27 07:39:01;;;;;;;65.20;38.90;;;;;;;;;;4416810;32;317773;-85
2023/01/27 07:41:28;;;;;;;57.33;39.77;;;;;;;;;;4405562;32;318460;-85
2023/01/27 07:43:56;;;;;;;57.67;38.53;;;;;;;;;;4415602;32;318841;-85
2023/01/27 07:46:23;;;;;;;57.10;37.37;;;;;;;;;;4405543;32;318385;-85
2023/01/27 07:48:49;;;;;;;52.53;35.07;;;;;;;;;;4414974;32;318303;-84
2023/01/27 07:51:16;;;;;;;51.23;31.50;;;;;;;;;;4416330;32;317867;-85
2023/01/27 07:53:44;;;;;;;39.47;24.57;;;;;;;;;;4406235;32;318320;-83
2023/01/27 07:56:11;;;;;;;27.87;19.73;;;;;;;;;;4415478;32;317470;-84
2023/01/27 07:58:38;;;;;;;31.13;20.83;;;;;;;;;;4408147;32;317588;-84
2023/01/27 08:01:07;;;;;;;30.43;20.73;;;;;;;;;;4419113;32;317409;-85
2023/01/27 08:03:35;;;;;;;32.43;22.03;;;;;;;;;;4409262;32;317555;-85
2023/01/27 08:06:05;;;;;;;43.63;27.90;;;;;;;;;;4418624;32;318698;-85
2023/01/27 08:08:33;;;;;;;53.83;34.30;;;;;;;;;;4408706;32;317825;-84
2023/01/27 08:11:00;;;;;;;48.37;31.10;;;;;;;;;;4418808;32;319171;-83
2023/01/27 08:13:27;;;;;;;48.83;32.03;;;;;;;;;;4408821;32;317489;-83
2023/01/27 08:15:57;;;;;;;50.90;32.57;;;;;;;;;;4418658;32;317503;-83
2023/01/27 08:18:26;;;;;;;41.73;24.63;;;;;;;;;;4408961;32;318501;-83
2023/01/27 08:20:53;;;;;;;48.17;27.90;;;;;;;;;;4417451;32;318488;-82
2023/01/27 08:23:21;;;;;;;44.73;24.33;;;;;;;;;;4417824;32;317811;-83
2023/01/27 08:25:51;;;;;;;32.63;19.27;;;;;;;;;;4404406;32;415993;-83
2023/01/27 08:28:18;;;;;;;28.10;18.40;;;;;;;;;;4417447;32;318501;-82
2023/01/27 08:30:45;;;;;;;58.93;25.33;;;;;;;;;;4408352;32;318555;-84
2023/01/27 08:33:12;;;;;;;23.77;14.00;;;;;;;;;;4418458;32;318158;-84
2023/01/27 08:35:43;;;;;;;19.87;12.53;;;;;;;;;;4408539;32;317760;-83
2023/01/27 08:38:10;;;;;;;71.47;33.93;;;;;;;;;;4417498;32;317459;-83
2023/01/27 08:40:38;;;;;;;41.07;20.87;;;;;;;;;;4408653;32;317662;-84
2023/01/27 08:43:05;;;;;;;33.13;20.03;;;;;;;;;;4418831;32;318506;-83
2023/01/27 08:45:32;;;;;;;34.70;19.10;;;;;;;;;;4407204;32;317734;-83
2023/01/27 08:47:59;;;;;;;202.87;128.37;;;;;;;;;;4417118;32;317730;-86
2023/01/27 08:50:26;;;;;;;41.93;27.97;;;;;;;;;;4407446;32;319617;-83
2023/01/27 08:52:57;;;;;;;31.07;22.23;;;;;;;;;;4418006;32;317421;-83
2023/01/27 08:55:25;;;;;;;32.40;20.50;;;;;;;;;;4408153;32;317564;-84
2023/01/27 08:57:51;;;;;;;26.17;17.50;;;;;;;;;;4418362;32;318313;-83
2023/01/27 09:00:19;;;;;;;30.43;16.63;;;;;;;;;;4417647;32;317375;-84
2023/01/27 09:02:46;;;;;;;107.50;67.10;;;;;;;;;;4404720;32;407563;-84
2023/01/27 09:05:13;;;;;;;44.80;30.17;;;;;;;;;;4416967;32;318785;-83
2023/01/27 09:07:40;;;;;;;26.40;15.17;;;;;;;;;;4407063;32;317488;-83
2023/01/27 09:10:09;;;;;;;22.13;16.13;;;;;;;;;;4416747;32;317600;-84
2023/01/27 09:12:36;;;;;;;23.50;16.37;;;;;;;;;;4408462;32;318326;-84
2023/01/27 09:15:03;;;;;;;36.53;23.93;;;;;;;;;;4417031;32;317271;-83
2023/01/27 09:17:30;;;;;;;67.03;42.17;;;;;;;;;;4407154;32;317461;-84
2023/01/27 09:19:56;;;;;;;32.30;20.77;;;;;;;;;;4418091;32;318662;-83
2023/01/27 09:22:23;;;;;;;44.40;23.57;;;;;;;;;;4408218;32;318648;-83
2023/01/27 09:24:50;;;;;;;36.77;20.80;;;;;;;;;;4417756;32;317863;-84
2023/01/27 09:27:18;;;;;;;27.60;18.13;;;;;;;;;;4417705;32;317405;-83
2023/01/27 09:29:46;;;;;;;34.57;21.57;;;;;;;;;;4407648;32;318600;-83
2023/01/27 09:32:13;;;;;;;30.10;19.53;;;;;;;;;;4416086;32;350027;-82
2023/01/27 09:34:39;;;;;;;36.43;22.10;;;;;;;;;;4408129;32;317489;-83
2023/01/27 09:37:10;;;;;;;30.73;20.37;;;;;;;;;;4418082;32;317623;-83
2023/01/27 09:39:48;;;;;;;29.27;18.87;;;;;;;;;;4406890;32;318342;-83
2023/01/27 09:42:46;;;;;;;28.30;18.93;;;;;;;;;;4416687;32;317511;-83
2023/01/27 09:45:38;;;;;;;53.57;25.43;;;;;;;;;;4399421;32;418452;-83
2023/01/27 09:48:22;;;;;;;152.27;57.00;;;;;;;;;;4403616;32;418480;-83
2023/01/27 09:50:55;;;;;;;41.37;22.17;;;;;;;;;;4404107;32;419007;-83
2023/01/27 09:53:43;;;;;;;26.67;16.53;;;;;;;;;;4405884;32;374541;-84
2023/01/27 09:56:15;;;;;;;150.37;56.60;;;;;;;;;;4415127;32;317579;-83
2023/01/27 09:58:57;;;;;;;29.13;16.00;;;;;;;;;;4405475;32;338253;-82
2023/01/27 10:01:36;;;;;;;11.47;8.37;;;;;;;;;;4405880;32;318721;-83
2023/01/27 10:04:36;;;;;;;24.20;14.50;;;;;;;;;;4417408;32;316615;-82
2023/01/27 10:07:31;;;;;;;30.20;18.53;;;;;;;;;;4404562;32;418027;-82
2023/01/27 10:10:13;;;;;;;30.47;15.63;;;;;;;;;;4403080;32;418503;-82
2023/01/27 10:12:53;;;;;;;39.17;23.80;;;;;;;;;;4406286;32;317874;-82
2023/01/27 10:15:38;;;;;;;31.40;20.47;;;;;;;;;;4416870;32;317709;-82
2023/01/27 10:18:19;;;;;;;27.23;17.43;;;;;;;;;;4402865;32;418219;-83
2023/01/27 10:20:54;;;;;;;26.70;14.63;;;;;;;;;;4402678;32;419896;-83
2023/01/27 10:23:32;;;;;;;34.57;18.63;;;;;;;;;;4413976;32;317412;-83
2023/01/27 10:26:09;;;;;;;38.50;23.00;;;;;;;;;;4417108;32;318278;-82
2023/01/27 10:28:38;;;;;;;43.87;24.57;;;;;;;;;;4407321;32;318645;-82
2023/01/27 10:31:13;;;;;;;32.70;20.57;;;;;;;;;;4417361;32;318346;-83
2023/01/27 10:33:50;;;;;;;35.90;21.43;;;;;;;;;;4407094;32;318489;-82
2023/01/27 10:36:25;;;;;;;38.73;20.90;;;;;;;;;;4417050;32;318685;-82
2023/01/27 10:39:03;;;;;;;37.73;24.07;;;;;;;;;;4403409;32;418230;-86
2023/01/27 10:41:36;;;;;;;37.93;24.63;;;;;;;;;;4406112;32;317833;-82
2023/01/27 10:44:17;;;;;;;52.17;28.87;;;;;;;;;;4416494;32;317554;-84
2023/01/27 10:46:54;;;;;;;56.83;30.77;;;;;;;;;;4405697;32;318585;-82
2023/01/27 10:49:25;;;;;;;43.83;28.97;;;;;;;;;;4411145;32;318377;-85
2023/01/27 10:51:57;;;;;;;52.53;32.57;;;;;;;;;;4415632;32;318183;-83
2023/01/27 10:54:31;;;;;;;53.37;33.27;;;;;;;;;;4404960;32;374576;-83
2023/01/27 10:57:03;;;;;;;62.80;35.70;;;;;;;;;;4416604;32;317688;-83
2023/01/27 10:59:38;;;;;;;49.67;27.97;;;;;;;;;;4404810;32;318532;-83
2023/01/27 11:02:14;;;;;;;36.77;22.70;;;;;;;;;;4416683;32;318409;-83
2023/01/27 11:04:44;;;;;;;32.23;18.27;;;;;;;;;;4406376;32;318556;-83
2023/01/27 11:07:16;;;;;;;15.03;10.87;;;;;;;;;;4415820;32;318190;-83
2023/01/27 11:09:48;;;;;;;15.80;11.73;;;;;;;;;;4406387;32;317794;-84
2023/01/27 11:12:16;;;;;;;9.83;7.07;;;;;;;;;;4416983;32;318496;-83
2023/01/27 11:14:46;;;;;;;11.10;7.80;;;;;;;;;;4405554;32;316100;-82
2023/01/27 11:17:25;;;;;;;19.50;10.87;;;;;;;;;;4416904;32;316283;-82
2023/01/27 11:19:58;;;;;;;13.40;8.87;;;;;;;;;;4402694;32;418441;-84
2023/01/27 11:22:33;;;;;;;10.60;7.93;;;;;;;;;;4407027;32;316906;-82
2023/01/27 11:25:06;;;;;;;27.50;13.70;;;;;;;;;;4415313;32;316618;-83
2023/01/27 11:27:52;;;;;;;19.67;10.30;;;;;;;;;;4406792;32;318538;-83
2023/01/27 11:30:26;;;;;;;26.80;13.00;;;;;;;;;;4417812;32;318268;-82
2023/01/27 11:33:01;;;;;;;21.83;13.10;;;;;;;;;;4407289;32;418814;-82
2023/01/27 11:35:28;;;;;;;16.47;10.80;;;;;;;;;;4409993;32;318599;-82
2023/01/27 11:37:55;;;;;;;14.73;9.63;;;;;;;;;;4420155;32;318602;-84
2023/01/27 11:40:27;;;;;;;11.23;8.70;;;;;;;;;;4409852;32;317307;-84
2023/01/27 11:42:56;;;;;;;18.37;11.00;;;;;;;;;;4420158;32;317243;-82
2023/01/27 11:45:24;;;;;;;15.53;10.83;;;;;;;;;;4408528;32;317508;-83
2023/01/27 11:47:56;;;;;;;17.20;13.20;;;;;;;;;;4419007;32;317603;-84
2023/01/27 11:50:27;;;;;;;18.27;12.93;;;;;;;;;;4408638;32;318393;-84
2023/01/27 11:53:00;;;;;;;18.87;13.63;;;;;;;;;;4418351;32;332026;-83
2023/01/27 11:55:33;;;;;;;28.73;16.23;;;;;;;;;;4408776;32;318477;-84
2023/01/27 11:58:13;;;;;;;22.57;12.40;;;;;;;;;;4419051;32;318418;-84
2023/01/27 12:00:45;;;;;;;23.40;16.10;;;;;;;;;;4408518;32;318532;-84
2023/01/27 12:03:19;;;;;;;25.07;16.83;;;;;;;;;;4418941;32;318336;-84
2023/01/27 12:05:51;;;;;;;27.60;18.73;;;;;;;;;;4406845;32;417386;-84
2023/01/27 12:08:37;;;;;;;20.23;15.60;;;;;;;;;;4419255;32;318506;-84
2023/01/27 12:11:19;;;;;;;17.13;12.90;;;;;;;;;;4406772;32;418123;-84
2023/01/27 12:13:52;;;;;;;18.23;12.50;;;;;;;;;;4405739;32;418991;-84
2023/01/27 12:16:19;;;;;;;33.93;23.57;;;;;;;;;;4419952;32;318690;-84
2023/01/27 12:18:55;;;;;;;35.20;21.10;;;;;;;;;;4409777;32;318779;-84
2023/01/27 12:21:34;;;;;;;59.70;37.20;;;;;;;;;;4409553;32;317892;-84
2023/01/27 12:24:01;;;;;;;31.50;19.87;;;;;;;;;;4418477;32;318192;-85
2023/01/27 12:26:36;;;;;;;38.77;24.60;;;;;;;;;;4409267;32;318375;-85
2023/01/27 12:29:07;;;;;;;40.73;27.33;;;;;;;;;;4417535;32;339908;-84
2023/01/27 12:31:45;;;;;;;40.53;22.83;;;;;;;;;;4409455;32;318150;-84
2023/01/27 12:34:29;;;;;;;35.87;23.37;;;;;;;;;;4419351;32;318676;-84
2023/01/27 12:36:57;;;;;;;44.57;26.33;;;;;;;;;;4405393;32;418140;-85
2023/01/27 12:39:28;;;;;;;42.87;25.80;;;;;;;;;;4408236;32;318300;-85
2023/01/27 12:41:55;;;;;;;31.37;22.53;;;;;;;;;;4417916;32;318398;-85
2023/01/27 12:44:22;;;;;;;40.57;26.10;;;;;;;;;;4408349;32;354970;-84
2023/01/27 12:46:58;;;;;;;34.60;23.20;;;;;;;;;;4419104;32;318306;-84
2023/01/27 12:49:31;;;;;;;45.03;23.37;;;;;;;;;;4409123;32;318390;-84
2023/01/27 12:52:02;;;;;;;38.10;25.93;;;;;;;;;;4418311;32;318272;-84
2023/01/27 12:54:32;;;;;;;33.07;22.20;;;;;;;;;;4409135;32;318734;-84
2023/01/27 12:57:03;;;;;;;41.90;26.90;;;;;;;;;;4419220;32;317678;-86
2023/01/27 12:59:31;;;;;;;43.67;29.17;;;;;;;;;;4407549;32;317702;-86
2023/01/27 13:02:01;;;;;;;53.27;32.73;;;;;;;;;;4418666;32;331028;-85
2023/01/27 13:04:30;;;;;;;62.93;39.47;;;;;;;;;;4409279;32;318441;-85
2023/01/27 13:07:06;;;;;;;58.17;38.07;;;;;;;;;;4417836;32;318441;-85
2023/01/27 13:09:36;;;;;;;80.07;46.80;;;;;;;;;;4407694;32;318467;-85
2023/01/27 13:12:16;;;;;;;76.37;46.57;;;;;;;;;;4416752;32;349921;-85
2023/01/27 13:14:43;;;;;;;56.47;36.77;;;;;;;;;;4407596;32;318356;-85
2023/01/27 13:17:29;;;;;;;62.13;38.20;;;;;;;;;;4410436;32;318381;-85
2023/01/27 13:20:00;;;;;;;52.97;38.80;;;;;;;;;;4404932;32;418502;-84
2023/01/27 13:22:27;;;;;;;51.00;34.27;;;;;;;;;;4408787;32;318169;-85
2023/01/27 13:24:59;;;;;;;61.93;39.67;;;;;;;;;;4418632;32;318459;-85
2023/01/27 13:27:27;;;;;;;62.10;38.53;;;;;;;;;;4408467;32;329006;-85
2023/01/27 13:29:59;;;;;;;69.23;42.67;;;;;;;;;;4417163;32;321083;-85
2023/01/27 13:32:29;;;;;;;51.63;33.07;;;;;;;;;;4406345;32;317724;-86
2023/01/27 13:35:06;;;;;;;58.43;39.27;;;;;;;;;;4418305;32;324173;-85
2023/01/27 13:37:37;;;;;;;44.60;29.50;;;;;;;;;;4408475;32;318439;-85
2023/01/27 13:40:12;;;;;;;39.50;28.57;;;;;;;;;;4417198;32;318411;-85
2023/01/27 13:42:44;;;;;;;35.20;23.67;;;;;;;;;;4407527;32;318532;-85
2023/01/27 13:45:14;;;;;;;38.60;25.37;;;;;;;;;;4418505;32;317844;-86
2023/01/27 13:47:49;;;;;;;25.07;16.97;;;;;;;;;;4407973;32;330807;-86
2023/01/27 13:50:26;;;;;;;29.80;20.63;;;;;;;;;;4418368;32;317498;-86
2023/01/27 13:52:56;;;;;;;24.90;17.07;;;;;;;;;;4404718;32;417268;-86
2023/01/27 13:55:40;;;;;;;45.63;27.27;;;;;;;;;;4405032;32;399987;-86
2023/01/27 13:58:18;;;;;;;50.50;31.60;;;;;;;;;;4418199;32;317716;-86
2023/01/27 14:00:53;;;;;;;42.77;25.80;;;;;;;;;;4407809;32;319252;-85
2023/01/27 14:03:45;;;;;;;40.43;28.67;;;;;;;;;;4418316;32;318454;-85
2023/01/27 14:06:24;;;;;;;44.83;29.70;;;;;;;;;;4403758;32;418206;-86
2023/01/27 14:09:06;;;;;;;32.93;23.43;;;;;;;;;;4403646;32;419253;-86
2023/01/27 14:11:38;;;;;;;37.13;24.60;;;;;;;;;;4406665;32;318343;-86
2023/01/27 14:14:17;;;;;;;36.80;25.13;;;;;;;;;;4416217;32;343701;-86
2023/01/27 14:16:59;;;;;;;37.37;26.13;;;;;;;;;;4406801;32;318280;-86
2023/01/27 14:19:36;;;;;;;40.07;24.47;;;;;;;;;;4408157;32;318300;-86
2023/01/27 14:22:13;;;;;;;30.13;21.60;;;;;;;;;;4418020;32;318300;-86
2023/01/27 14:24:49;;;;;;;30.10;20.40;;;;;;;;;;4407681;32;318297;-85
2023/01/27 14:27:22;;;;;;;64.37;34.37;;;;;;;;;;4417786;32;317700;-86
2023/01/27 14:29:57;;;;;;;38.13;26.43;;;;;;;;;;4403552;32;418123;-86
2023/01/27 14:32:29;;;;;;;45.23;28.47;;;;;;;;;;4408007;32;318176;-87
2023/01/27 14:35:17;;;;;;;47.17;28.47;;;;;;;;;;4416713;32;317715;-86
2023/01/27 14:37:53;;;;;;;50.13;32.33;;;;;;;;;;4405739;32;318793;-85
2023/01/27 14:40:29;;;;;;;48.67;31.87;;;;;;;;;;4416431;32;318560;-85
2023/01/27 14:43:11;;;;;;;45.63;31.07;;;;;;;;;;4404895;32;418359;-84
2023/01/27 14:45:40;;;;;;;59.57;37.67;;;;;;;;;;4405688;32;337454;-84
2023/01/27 14:48:21;;;;;;;66.77;41.93;;;;;;;;;;4417662;32;318611;-84